Time;durP1;ratioP1;P1;durP2;ratioP2;P2;SDS_P1;SDS_P2;PMS_P1;PMS_P2;Temp;Humidity;BMP_temperature;BMP_pressure;BME280_temperature;BME280_humidity;BME280_pressure;Samples;Min_cycle;Max_cycle;Signal;HPM_P1;HPM_P2
2021/07/18 00:01:04;;;;;;;24.27;14.32;;;20.80;83.10;;;;;;5045192;28;20108;-70
2021/07/18 00:03:30;;;;;;;22.35;14.18;;;20.80;83.20;;;;;;5045120;28;20102;-71
2021/07/18 00:05:55;;;;;;;23.67;16.15;;;20.80;83.10;;;;;;5045661;28;20033;-71
2021/07/18 00:08:21;;;;;;;26.45;16.55;;;20.90;82.80;;;;;;5045222;28;20219;-71
2021/07/18 00:10:47;;;;;;;22.52;15.85;;;20.90;83.00;;;;;;5044757;28;20033;-72
2021/07/18 00:13:12;;;;;;;29.38;17.35;;;20.80;83.30;;;;;;5044654;28;20300;-71
2021/07/18 00:15:38;;;;;;;23.60;15.25;;;20.70;83.60;;;;;;5044710;28;20045;-71
2021/07/18 00:18:04;;;;;;;22.05;15.18;;;20.70;83.70;;;;;;5045139;28;20041;-71
2021/07/18 00:20:29;;;;;;;24.20;15.00;;;20.80;83.40;;;;;;5044950;28;20320;-71
2021/07/18 00:22:55;;;;;;;22.65;15.25;;;20.80;83.20;;;;;;5027321;28;20209;-72
2021/07/18 00:25:20;;;;;;;25.67;15.10;;;20.80;83.10;;;;;;5044566;28;20037;-71
2021/07/18 00:27:46;;;;;;;25.08;15.02;;;20.80;83.20;;;;;;5044407;28;20080;-71
2021/07/18 00:30:12;;;;;;;21.30;13.93;;;20.70;83.50;;;;;;5027642;28;20037;-72
2021/07/18 00:32:37;;;;;;;24.45;15.25;;;20.60;83.70;;;;;;5044917;28;20037;-72
2021/07/18 00:35:04;;;;;;;21.40;15.77;;;20.70;83.60;;;;;;5027304;28;20040;-72
2021/07/18 00:37:29;;;;;;;19.02;13.77;;;20.80;83.30;;;;;;5044069;28;20136;-71
2021/07/18 00:39:55;;;;;;;21.60;14.10;;;20.80;83.20;;;;;;5044404;28;20049;-70
2021/07/18 00:42:20;;;;;;;20.23;14.00;;;20.80;82.90;;;;;;5044117;28;20036;-70
2021/07/18 00:44:46;;;;;;;24.00;15.13;;;20.80;83.00;;;;;;5044922;28;20081;-70
2021/07/18 00:47:12;;;;;;;20.83;15.50;;;20.80;82.90;;;;;;5044458;28;20041;-70
2021/07/18 00:49:37;;;;;;;22.48;14.57;;;20.90;82.90;;;;;;5026187;28;20033;-71
2021/07/18 00:52:04;;;;;;;22.30;13.60;;;20.90;82.70;;;;;;5044150;28;20025;-70
2021/07/18 00:54:30;;;;;;;24.58;15.18;;;20.80;82.80;;;;;;5043963;28;20082;-69
2021/07/18 00:56:57;;;;;;;26.02;15.93;;;20.90;82.60;;;;;;5044512;28;20025;-70
2021/07/18 00:59:25;;;;;;;21.08;14.32;;;20.80;82.80;;;;;;5044403;28;20055;-70
2021/07/18 01:01:51;;;;;;;23.50;14.60;;;;;;;;;;5044073;28;20140;-70
2021/07/18 01:04:17;;;;;;;23.15;13.65;;;20.80;82.90;;;;;;5026676;28;20030;-70
2021/07/18 01:06:42;;;;;;;20.33;13.30;;;20.80;82.90;;;;;;5010153;28;20056;-70
2021/07/18 01:09:08;;;;;;;22.58;13.48;;;20.80;82.80;;;;;;5044261;28;20030;-70
2021/07/18 01:11:33;;;;;;;22.42;13.57;;;20.80;82.60;;;;;;5044195;28;20267;-70
2021/07/18 01:13:59;;;;;;;22.15;13.95;;;20.80;83.00;;;;;;5043963;28;20321;-70
2021/07/18 01:16:25;;;;;;;24.10;13.68;;;20.60;83.30;;;;;;5043778;28;20033;-70
2021/07/18 01:18:51;;;;;;;20.83;12.95;;;20.70;83.00;;;;;;5043542;28;20329;-70
2021/07/18 01:21:16;;;;;;;19.00;12.82;;;20.70;83.00;;;;;;5043992;28;20036;-70
2021/07/18 01:23:42;;;;;;;20.35;11.98;;;20.70;82.90;;;;;;5026065;28;20341;-70
2021/07/18 01:26:07;;;;;;;18.33;12.55;;;20.70;82.80;;;;;;5026350;28;20030;-71
2021/07/18 01:28:33;;;;;;;18.17;12.27;;;20.70;82.60;;;;;;5043691;28;20086;-71
2021/07/18 01:30:59;;;;;;;21.27;12.48;;;20.70;82.60;;;;;;5043488;28;20084;-71
2021/07/18 01:33:24;;;;;;;20.83;12.07;;;20.60;83.00;;;;;;5026158;28;20088;-70
2021/07/18 01:35:50;;;;;;;21.88;12.40;;;20.60;82.90;;;;;;5043957;28;20021;-71
2021/07/18 01:38:15;;;;;;;19.10;11.73;;;20.60;82.70;;;;;;5043341;28;20046;-71
2021/07/18 01:40:41;;;;;;;21.95;13.07;;;20.60;82.80;;;;;;5043622;28;20045;-71
2021/07/18 01:43:07;;;;;;;18.02;12.35;;;20.60;82.70;;;;;;5043447;28;20029;-70
2021/07/18 01:45:32;;;;;;;21.13;12.07;;;20.60;82.90;;;;;;5025782;28;20127;-70
2021/07/18 01:47:58;;;;;;;19.60;11.95;;;20.60;83.00;;;;;;5026297;28;20033;-71
2021/07/18 01:50:23;;;;;;;18.73;11.57;;;20.50;83.10;;;;;;5043760;28;20084;-70
2021/07/18 01:52:49;;;;;;;17.13;12.15;;;20.50;82.90;;;;;;5043296;28;20041;-70
2021/07/18 01:55:16;;;;;;;20.05;12.20;;;20.50;83.30;;;;;;5043235;28;20065;-70
2021/07/18 01:57:42;;;;;;;18.35;11.50;;;20.50;82.90;;;;;;5043433;28;20079;-70
2021/07/18 02:00:09;;;;;;;17.95;11.13;;;20.50;83.20;;;;;;5043711;28;20325;-70
2021/07/18 02:02:35;;;;;;;15.10;10.82;;;20.50;83.00;;;;;;5047507;28;20034;-70
2021/07/18 02:05:00;;;;;;;19.23;11.02;;;20.40;83.20;;;;;;5047090;28;20471;-71
2021/07/18 02:07:27;;;;;;;14.95;10.65;;;20.40;83.10;;;;;;5047136;28;20037;-71
2021/07/18 02:09:53;;;;;;;17.92;9.68;;;20.50;82.80;;;;;;5047001;28;20031;-71
2021/07/18 02:12:19;;;;;;;14.93;10.82;;;20.60;82.50;;;;;;5029911;28;20071;-70
2021/07/18 02:14:44;;;;;;;17.35;10.10;;;20.50;82.60;;;;;;5047438;28;20061;-73
2021/07/18 02:17:10;;;;;;;17.05;9.65;;;20.50;82.60;;;;;;5047309;28;20076;-72
2021/07/18 02:19:35;;;;;;;15.38;10.10;;;20.50;82.60;;;;;;5029409;28;20072;-72
2021/07/18 02:22:01;;;;;;;19.77;10.50;;;20.40;82.50;;;;;;5046690;28;20306;-72
2021/07/18 02:24:26;;;;;;;16.45;9.68;;;20.50;82.30;;;;;;5029554;28;20259;-71
2021/07/18 02:26:52;;;;;;;14.55;9.88;;;20.40;82.30;;;;;;5047515;28;20025;-72
2021/07/18 02:29:18;;;;;;;16.88;9.27;;;20.40;82.30;;;;;;5047121;28;20096;-72
2021/07/18 02:31:43;;;;;;;15.73;9.50;;;20.40;82.30;;;;;;5046574;28;20029;-72
2021/07/18 02:34:09;;;;;;;14.82;8.65;;;20.40;82.30;;;;;;5046469;28;20056;-72
2021/07/18 02:36:34;;;;;;;15.52;8.82;;;20.40;82.20;;;;;;5028857;28;20053;-72
2021/07/18 02:39:00;;;;;;;12.73;8.82;;;20.50;82.00;;;;;;5046839;28;20112;-72
2021/07/18 02:41:26;;;;;;;14.77;9.55;;;20.40;82.20;;;;;;5046826;28;20105;-72
2021/07/18 02:43:52;;;;;;;13.75;8.90;;;20.40;82.00;;;;;;5029166;28;20045;-72
2021/07/18 02:46:18;;;;;;;14.38;9.25;;;20.30;82.20;;;;;;5029047;28;20052;-72
2021/07/18 02:48:43;;;;;;;13.82;8.60;;;20.40;82.00;;;;;;5046312;28;20038;-72
2021/07/18 02:51:09;;;;;;;14.50;8.75;;;20.30;82.10;;;;;;5047089;28;20033;-72
2021/07/18 02:53:34;;;;;;;14.52;7.78;;;20.30;81.90;;;;;;5046680;28;20038;-72
2021/07/18 02:56:00;;;;;;;14.73;8.93;;;20.30;81.70;;;;;;5046587;28;20048;-72
2021/07/18 02:58:25;;;;;;;15.60;9.57;;;20.30;81.80;;;;;;5028787;28;20056;-73
2021/07/18 03:00:51;;;;;;;18.50;9.70;;;20.20;82.10;;;;;;5046393;28;20282;-72
2021/07/18 03:03:18;;;;;;;13.48;8.48;;;20.20;82.40;;;;;;5029570;28;20312;-72
2021/07/18 03:05:44;;;;;;;15.98;8.45;;;20.10;82.70;;;;;;5046203;28;20044;-72
2021/07/18 03:08:09;;;;;;;13.23;7.72;;;20.10;82.60;;;;;;5028824;28;20038;-72
2021/07/18 03:10:35;;;;;;;11.57;7.40;;;20.10;82.60;;;;;;5045867;28;20037;-72
2021/07/18 03:13:00;;;;;;;10.32;7.22;;;20.10;82.60;;;;;;5045031;28;20086;-72
2021/07/18 03:15:26;;;;;;;11.52;7.63;;;20.20;82.10;;;;;;5028531;28;20057;-72
2021/07/18 03:17:51;;;;;;;13.02;7.35;;;20.20;81.70;;;;;;5046537;28;20034;-72
2021/07/18 03:20:17;;;;;;;13.40;7.13;;;20.20;81.80;;;;;;5028479;28;20059;-72
2021/07/18 03:22:43;;;;;;;12.85;6.43;;;20.20;81.80;;;;;;5028074;28;20038;-72
2021/07/18 03:25:09;;;;;;;11.40;6.88;;;20.10;81.60;;;;;;5045611;28;20032;-72
2021/07/18 03:27:34;;;;;;;13.02;6.47;;;20.00;81.80;;;;;;5027900;28;20025;-72
2021/07/18 03:30:00;;;;;;;13.20;6.57;;;20.00;82.10;;;;;;5028844;28;20053;-72
2021/07/18 03:32:25;;;;;;;11.10;6.25;;;20.00;82.20;;;;;;5028485;28;20048;-72
2021/07/18 03:34:52;;;;;;;11.07;6.47;;;20.10;81.80;;;;;;5028188;28;20068;-72
2021/07/18 03:37:18;;;;;;;9.43;6.78;;;20.00;81.90;;;;;;5045307;28;20037;-72
2021/07/18 03:39:43;;;;;;;12.38;5.93;;;20.00;82.00;;;;;;5045301;28;20233;-72
2021/07/18 03:42:09;;;;;;;13.93;6.80;;;20.00;81.90;;;;;;5046387;28;20321;-73
2021/07/18 03:44:34;;;;;;;10.65;6.05;;;19.90;81.70;;;;;;5028232;28;20045;-72
2021/07/18 03:47:00;;;;;;;9.77;5.90;;;19.90;82.00;;;;;;5044056;28;20025;-72
2021/07/18 03:49:25;;;;;;;11.82;5.90;;;19.90;82.50;;;;;;5045634;28;20021;-72
2021/07/18 03:51:51;;;;;;;14.27;6.60;;;20.00;81.60;;;;;;5027677;28;20033;-72
2021/07/18 03:54:16;;;;;;;15.25;5.63;;;19.90;81.80;;;;;;5045636;28;20021;-72
2021/07/18 03:56:42;;;;;;;7.78;5.43;;;20.00;81.50;;;;;;5027508;28;20037;-72
2021/07/18 03:59:07;;;;;;;14.00;6.18;;;20.00;81.40;;;;;;5045451;28;20056;-72
2021/07/18 04:01:33;;;;;;;12.90;6.10;;;20.00;81.40;;;;;;5044846;28;20033;-72
2021/07/18 04:03:58;;;;;;;12.45;6.32;;;20.00;81.30;;;;;;5045251;28;20037;-72
2021/07/18 04:06:24;;;;;;;10.15;5.20;;;19.90;81.50;;;;;;5045408;28;20033;-72
2021/07/18 04:08:50;;;;;;;11.40;5.45;;;19.90;81.40;;;;;;5027769;28;20096;-72
2021/07/18 04:11:15;;;;;;;18.02;5.78;;;19.80;81.80;;;;;;5045200;28;20037;-72
2021/07/18 04:13:41;;;;;;;12.13;5.60;;;19.80;81.70;;;;;;5044697;28;20044;-72
2021/07/18 04:16:06;;;;;;;13.32;5.65;;;19.80;82.00;;;;;;5027473;28;20386;-72
2021/07/18 04:18:32;;;;;;;17.48;5.75;;;19.80;81.60;;;;;;5027134;28;20059;-72
2021/07/18 04:20:58;;;;;;;11.25;5.10;;;19.80;82.00;;;;;;5027531;28;20261;-72
2021/07/18 04:23:23;;;;;;;11.43;5.07;;;19.80;81.60;;;;;;5027498;28;20339;-72
2021/07/18 04:25:49;;;;;;;15.63;5.28;;;19.80;81.20;;;;;;5026949;28;20034;-72
2021/07/18 04:28:14;;;;;;;9.57;4.57;;;19.80;81.20;;;;;;5044620;28;20320;-72
2021/07/18 04:30:40;;;;;;;9.63;4.80;;;19.70;81.60;;;;;;5026944;28;20026;-72
2021/07/18 04:33:06;;;;;;;8.43;4.43;;;19.70;81.90;;;;;;5027384;28;20084;-72
2021/07/18 04:35:31;;;;;;;6.80;4.60;;;19.80;81.70;;;;;;5027313;28;20306;-72
2021/07/18 04:37:57;;;;;;;10.70;4.85;;;19.80;81.50;;;;;;5044050;28;20045;-72
2021/07/18 04:40:23;;;;;;;8.98;4.60;;;19.80;81.30;;;;;;5044468;28;20275;-72
2021/07/18 04:42:49;;;;;;;12.57;4.60;;;19.80;81.60;;;;;;5027077;28;20045;-72
2021/07/18 04:45:14;;;;;;;8.88;4.65;;;19.60;82.00;;;;;;5044929;28;20029;-72
2021/07/18 04:47:50;;;;;;;13.50;4.65;;;19.60;82.10;;;;;;5044606;28;20375;-73
2021/07/18 04:50:16;;;;;;;9.88;4.60;;;19.70;81.80;;;;;;5027255;28;20037;-72
2021/07/18 04:52:42;;;;;;;13.60;5.30;;;19.60;81.90;;;;;;5026645;28;20367;-72
2021/07/18 04:55:08;;;;;;;9.02;5.00;;;19.60;82.10;;;;;;5026621;28;20030;-72
2021/07/18 04:57:33;;;;;;;8.50;4.90;;;19.60;82.00;;;;;;5026403;28;20041;-72
2021/07/18 04:59:59;;;;;;;10.23;4.85;;;19.70;81.80;;;;;;5026810;28;20072;-72
2021/07/18 05:02:24;;;;;;;7.80;4.30;;;19.80;81.50;;;;;;5044308;28;20199;-72
2021/07/18 05:04:50;;;;;;;13.52;4.65;;;19.60;82.00;;;;;;5044071;28;20038;-72
2021/07/18 05:07:15;;;;;;;8.88;4.68;;;19.60;82.00;;;;;;5043899;28;20204;-72
2021/07/18 05:09:41;;;;;;;7.35;4.45;;;19.70;82.00;;;;;;5043728;28;20228;-72
2021/07/18 05:12:07;;;;;;;9.85;4.22;;;19.60;82.10;;;;;;5044513;28;20033;-73
2021/07/18 05:14:32;;;;;;;8.85;4.00;;;19.60;82.00;;;;;;5044115;28;20057;-73
2021/07/18 05:16:58;;;;;;;8.00;4.30;;;19.70;81.70;;;;;;5043687;28;20080;-72
2021/07/18 05:19:23;;;;;;;11.60;4.28;;;19.60;81.40;;;;;;5043775;28;20037;-72
2021/07/18 05:21:49;;;;;;;10.15;4.13;;;19.50;81.60;;;;;;5043824;28;20037;-72
2021/07/18 05:24:14;;;;;;;9.35;4.32;;;19.60;81.50;;;;;;5044038;28;20085;-72
2021/07/18 05:26:40;;;;;;;6.85;4.28;;;19.70;81.20;;;;;;5043529;28;20049;-72
2021/07/18 05:29:05;;;;;;;12.23;4.25;;;19.60;81.50;;;;;;5043683;28;20044;-72
2021/07/18 05:31:31;;;;;;;9.18;4.30;;;19.60;81.50;;;;;;5043855;28;20030;-72
2021/07/18 05:33:57;;;;;;;9.65;4.47;;;19.50;81.70;;;;;;5026035;28;20182;-71
2021/07/18 05:36:22;;;;;;;7.63;3.97;;;19.50;81.60;;;;;;5025312;28;20037;-71
2021/07/18 05:38:48;;;;;;;9.25;4.10;;;19.50;81.80;;;;;;5043759;28;20045;-72
2021/07/18 05:41:13;;;;;;;9.85;4.60;;;19.40;81.90;;;;;;5043860;28;20044;-72
2021/07/18 05:43:39;;;;;;;9.15;3.88;;;19.50;82.20;;;;;;5043521;28;20089;-72
2021/07/18 05:46:04;;;;;;;11.07;4.32;;;19.50;81.80;;;;;;5025882;28;20305;-72
2021/07/18 05:48:31;;;;;;;6.88;3.53;;;19.40;81.90;;;;;;5025673;28;20028;-72
2021/07/18 05:50:57;;;;;;;8.02;4.05;;;19.60;81.80;;;;;;5010321;28;20038;-72
2021/07/18 05:53:22;;;;;;;9.52;3.60;;;19.60;81.90;;;;;;5025766;28;20140;-72
2021/07/18 05:55:48;;;;;;;11.68;3.83;;;19.60;81.80;;;;;;5043553;28;20037;-72
2021/07/18 05:58:13;;;;;;;8.57;3.95;;;19.60;81.60;;;;;;5026304;28;20029;-72
2021/07/18 06:00:42;;;;;;;6.05;3.63;;;19.70;81.20;;;;;;5043112;28;20041;-72
2021/07/18 06:03:08;;;;;;;10.45;4.05;;;19.60;81.00;;;;;;5043998;28;20078;-72
2021/07/18 06:05:35;;;;;;;6.90;3.95;;;19.70;80.80;;;;;;5026415;28;20046;-72
2021/07/18 06:08:01;;;;;;;9.82;3.67;;;19.80;80.50;;;;;;5026183;28;20056;-72
2021/07/18 06:10:27;;;;;;;8.13;3.97;;;19.70;80.60;;;;;;5025620;28;20036;-72
2021/07/18 06:12:52;;;;;;;11.88;3.40;;;19.80;80.20;;;;;;5043131;28;20332;-72
2021/07/18 06:15:18;;;;;;;5.93;3.85;;;19.60;80.70;;;;;;5043932;28;20030;-72
2021/07/18 06:17:43;;;;;;;7.13;3.95;;;19.70;80.90;;;;;;5025698;28;20033;-73
2021/07/18 06:20:09;;;;;;;8.45;4.40;;;19.60;81.00;;;;;;5043370;28;20035;-73
2021/07/18 06:22:36;;;;;;;9.77;4.43;;;19.70;81.20;;;;;;5009045;28;20396;-72
2021/07/18 06:25:03;;;;;;;12.15;4.63;;;19.80;80.80;;;;;;5025728;28;20072;-72
2021/07/18 06:27:29;;;;;;;10.70;4.22;;;19.70;80.90;;;;;;5042901;28;20108;-72
2021/07/18 06:29:54;;;;;;;10.55;5.35;;;19.80;80.90;;;;;;5043472;28;20241;-73
2021/07/18 06:32:20;;;;;;;12.82;4.60;;;19.80;80.70;;;;;;5043444;28;20072;-72
2021/07/18 06:34:47;;;;;;;9.98;4.65;;;19.80;80.90;;;;;;5025837;28;20036;-72
2021/07/18 06:37:12;;;;;;;11.43;4.43;;;19.80;80.90;;;;;;5042877;28;20030;-71
2021/07/18 06:39:38;;;;;;;11.07;4.10;;;19.80;80.80;;;;;;5042650;28;20072;-72
2021/07/18 06:42:04;;;;;;;11.88;4.47;;;19.80;80.70;;;;;;5043283;28;20296;-72
2021/07/18 06:44:29;;;;;;;7.80;3.92;;;19.80;81.20;;;;;;5025787;28;20029;-73
2021/07/18 06:46:55;;;;;;;9.32;3.83;;;19.80;80.90;;;;;;5043013;28;20038;-72
2021/07/18 06:49:20;;;;;;;7.60;4.57;;;19.80;80.50;;;;;;5045828;28;20068;-71
2021/07/18 06:51:46;;;;;;;10.00;4.60;;;19.80;80.70;;;;;;5028657;28;20033;-72
2021/07/18 06:54:11;;;;;;;8.35;4.43;;;19.80;80.90;;;;;;5046666;28;20120;-72
2021/07/18 06:56:37;;;;;;;8.07;4.10;;;19.80;81.10;;;;;;5029027;28;20118;-72
2021/07/18 06:59:02;;;;;;;8.52;4.40;;;19.60;81.70;;;;;;5046028;28;20344;-72
2021/07/18 07:01:28;;;;;;;9.48;4.30;;;19.80;81.30;;;;;;5028497;28;20052;-72
2021/07/18 07:03:54;;;;;;;8.80;4.38;;;19.80;81.10;;;;;;5028373;28;20075;-72
2021/07/18 07:06:19;;;;;;;15.73;4.60;;;19.80;81.10;;;;;;5046170;28;20037;-72
2021/07/18 07:08:45;;;;;;;7.18;3.75;;;19.80;81.30;;;;;;5028988;28;20025;-72
2021/07/18 07:11:11;;;;;;;9.27;4.63;;;19.90;80.80;;;;;;5046409;28;20037;-72
2021/07/18 07:13:36;;;;;;;8.27;3.97;;;19.80;81.00;;;;;;5028390;28;20083;-72
2021/07/18 07:16:02;;;;;;;11.63;4.38;;;19.80;81.10;;;;;;5045797;28;20079;-72
2021/07/18 07:18:27;;;;;;;10.38;4.80;;;19.80;81.00;;;;;;5028389;28;20029;-72
2021/07/18 07:20:53;;;;;;;8.70;4.68;;;19.90;80.90;;;;;;5046801;28;20252;-72
2021/07/18 07:23:18;;;;;;;9.60;4.25;;;19.90;80.70;;;;;;5045624;28;20092;-72
2021/07/18 07:25:44;;;;;;;9.60;4.38;;;19.90;80.50;;;;;;5045724;28;20037;-72
2021/07/18 07:28:10;;;;;;;14.00;4.78;;;19.90;80.20;;;;;;5028284;28;20032;-71
2021/07/18 07:30:36;;;;;;;10.55;4.53;;;19.90;80.20;;;;;;5045377;28;20033;-71
2021/07/18 07:33:02;;;;;;;12.00;4.38;;;19.90;80.10;;;;;;5012201;28;20082;-71
2021/07/18 07:35:28;;;;;;;6.63;4.47;;;19.90;80.20;;;;;;5046086;28;20037;-71
2021/07/18 07:37:53;;;;;;;11.88;4.60;;;19.80;80.30;;;;;;5045591;28;20398;-71
2021/07/18 07:40:19;;;;;;;7.30;4.30;;;19.90;80.70;;;;;;5045685;28;20356;-71
2021/07/18 07:42:44;;;;;;;9.02;4.18;;;19.80;80.90;;;;;;5027990;28;20029;-71
2021/07/18 07:45:10;;;;;;;8.57;4.15;;;19.80;80.60;;;;;;5045837;28;20068;-71
2021/07/18 07:47:37;;;;;;;8.25;4.45;;;19.90;80.30;;;;;;5045676;28;20025;-71
2021/07/18 07:50:05;;;;;;;8.90;3.78;;;19.90;80.10;;;;;;5027743;28;20064;-70
2021/07/18 07:52:30;;;;;;;8.45;4.28;;;19.90;80.40;;;;;;5011389;28;20037;-71
2021/07/18 07:54:56;;;;;;;9.30;4.45;;;19.90;80.70;;;;;;5045202;28;20048;-71
2021/07/18 07:57:21;;;;;;;8.75;4.15;;;19.90;80.70;;;;;;5027770;28;20083;-71
2021/07/18 07:59:47;;;;;;;7.97;3.83;;;19.90;80.60;;;;;;5045353;28;20029;-71
2021/07/18 08:02:13;;;;;;;11.23;4.20;;;20.00;80.70;;;;;;5045335;28;20104;-72
2021/07/18 08:04:38;;;;;;;6.95;4.13;;;19.90;80.70;;;;;;5045105;28;20104;-71
2021/07/18 08:07:04;;;;;;;10.77;4.60;;;20.00;80.50;;;;;;5045116;28;20030;-72
2021/07/18 08:09:29;;;;;;;8.02;3.97;;;20.00;80.60;;;;;;5027493;28;20033;-72
2021/07/18 08:11:55;;;;;;;8.85;4.40;;;20.10;80.40;;;;;;5045572;28;20033;-72
2021/07/18 08:14:20;;;;;;;10.68;4.32;;;20.00;80.90;;;;;;5028028;28;20041;-71
2021/07/18 08:16:46;;;;;;;13.90;4.97;;;20.00;80.80;;;;;;5011203;28;20065;-72
2021/07/18 08:19:13;;;;;;;8.65;4.00;;;20.10;80.50;;;;;;5044805;28;20329;-72
2021/07/18 08:21:38;;;;;;;9.88;3.58;;;20.10;80.30;;;;;;5027100;28;20029;-72
2021/07/18 08:24:05;;;;;;;10.88;4.40;;;20.10;80.20;;;;;;5027677;28;20084;-71
2021/07/18 08:26:30;;;;;;;9.38;4.50;;;20.20;80.10;;;;;;5027278;28;20265;-70
2021/07/18 08:28:56;;;;;;;7.95;4.20;;;20.30;80.10;;;;;;5027503;28;20034;-69
2021/07/18 08:31:21;;;;;;;7.75;4.10;;;20.30;80.10;;;;;;5044703;28;20022;-71
2021/07/18 08:33:47;;;;;;;10.30;4.55;;;20.30;80.20;;;;;;5026926;28;20026;-71
2021/07/18 08:36:12;;;;;;;9.18;4.82;;;20.30;80.40;;;;;;5045484;28;20029;-70
2021/07/18 08:38:38;;;;;;;11.27;4.70;;;20.40;80.60;;;;;;5044358;28;20053;-71
2021/07/18 08:41:04;;;;;;;8.43;4.43;;;20.40;80.10;;;;;;5043831;28;20049;-70
2021/07/18 08:43:30;;;;;;;11.13;5.00;;;20.40;80.50;;;;;;5010478;28;20076;-68
2021/07/18 08:45:56;;;;;;;9.88;5.25;;;20.40;80.60;;;;;;5026996;28;20030;-70
2021/07/18 08:48:21;;;;;;;11.10;5.63;;;20.30;80.60;;;;;;5044160;28;20029;-71
2021/07/18 08:50:48;;;;;;;9.48;4.78;;;20.30;80.80;;;;;;5027169;28;20324;-69
2021/07/18 08:53:14;;;;;;;7.70;5.20;;;20.30;80.80;;;;;;5027121;28;20328;-70
2021/07/18 08:55:40;;;;;;;13.75;5.85;;;20.40;80.70;;;;;;5026379;28;20044;-69
2021/07/18 08:58:05;;;;;;;12.45;5.95;;;20.50;80.20;;;;;;5044125;28;20026;-69
2021/07/18 09:00:31;;;;;;;12.20;6.25;;;20.40;80.20;;;;;;5042546;28;20025;-69
2021/07/18 09:02:56;;;;;;;13.15;5.88;;;20.40;79.90;;;;;;5010787;28;20079;-69
2021/07/18 09:05:22;;;;;;;11.02;6.10;;;20.40;79.60;;;;;;5026501;28;20030;-69
2021/07/18 09:07:55;;;;;;;14.10;6.13;;;20.50;79.60;;;;;;5043801;28;20029;-69
2021/07/18 09:10:22;;;;;;;10.50;6.55;;;20.30;79.10;;;;;;5025698;28;20041;-69
2021/07/18 09:13:20;;;;;;;11.60;6.28;;;20.40;79.70;;;;;;5010001;28;20093;-69
2021/07/18 09:15:50;;;;;;;14.85;6.75;;;20.50;79.90;;;;;;4988474;28;20029;-70
2021/07/18 09:18:22;;;;;;;10.90;6.70;;;20.50;79.70;;;;;;5044146;28;20037;-70
2021/07/18 09:20:49;;;;;;;11.57;6.20;;;20.50;79.60;;;;;;5043692;28;20041;-70
2021/07/18 09:23:17;;;;;;;13.73;6.50;;;20.60;79.90;;;;;;5026414;28;20044;-71
2021/07/18 09:25:43;;;;;;;10.15;6.82;;;20.70;79.90;;;;;;5027181;28;20030;-72
2021/07/18 09:28:12;;;;;;;12.68;7.28;;;20.70;79.90;;;;;;5043624;28;20026;-72
2021/07/18 09:30:38;;;;;;;15.68;7.60;;;20.60;79.90;;;;;;5043498;28;20040;-72
2021/07/18 09:33:04;;;;;;;13.32;7.28;;;20.60;79.70;;;;;;5027106;28;20088;-73
2021/07/18 09:35:29;;;;;;;12.15;6.88;;;20.60;79.40;;;;;;5026216;28;20248;-72
2021/07/18 09:37:55;;;;;;;12.23;6.95;;;20.50;79.10;;;;;;5043577;28;20091;-71
2021/07/18 09:40:22;;;;;;;15.60;7.85;;;20.60;79.40;;;;;;5043935;28;20048;-70
2021/07/18 09:42:52;;;;;;;13.98;7.30;;;20.70;79.20;;;;;;5043430;28;20040;-71
2021/07/18 09:45:22;;;;;;;15.95;8.82;;;20.70;79.60;;;;;;5027512;28;20036;-70
2021/07/18 09:48:08;;;;;;;19.10;7.70;;;20.70;80.10;;;;;;5043539;28;20033;-71
2021/07/18 09:50:36;;;;;;;27.88;13.48;;;20.60;80.10;;;;;;5026325;28;20041;-73
2021/07/18 09:53:18;;;;;;;24.08;11.70;;;20.60;79.70;;;;;;5009722;28;20033;-72
2021/07/18 09:56:08;;;;;;;19.42;8.77;;;20.70;80.10;;;;;;5025817;28;20043;-72
2021/07/18 09:58:34;;;;;;;14.90;8.23;;;20.70;80.30;;;;;;5043257;28;20309;-72
2021/07/18 10:01:00;;;;;;;12.95;8.68;;;20.80;80.20;;;;;;5025556;28;20084;-71
2021/07/18 10:03:27;;;;;;;18.58;7.78;;;20.80;80.00;;;;;;5042723;28;20041;-71
2021/07/18 10:06:09;;;;;;;20.80;8.38;;;20.80;80.10;;;;;;5009869;28;20377;-70
2021/07/18 10:08:39;;;;;;;17.13;8.98;;;20.80;79.60;;;;;;5026171;28;20038;-73
2021/07/18 10:11:09;;;;;;;14.32;9.27;;;20.80;80.30;;;;;;5026389;28;20057;-71
2021/07/18 10:13:36;;;;;;;17.92;9.65;;;20.80;80.50;;;;;;5025810;28;20056;-69
2021/07/18 10:16:01;;;;;;;13.27;8.48;;;20.80;80.10;;;;;;5025607;28;20029;-69
2021/07/18 10:18:27;;;;;;;18.08;10.18;;;20.80;80.30;;;;;;5025548;28;20049;-68
2021/07/18 10:20:53;;;;;;;16.33;10.70;;;20.80;80.10;;;;;;5043445;28;20037;-69
2021/07/18 10:23:19;;;;;;;16.42;10.30;;;20.80;80.10;;;;;;5028787;28;20259;-69
2021/07/18 10:25:45;;;;;;;23.13;14.55;;;20.90;80.20;;;;;;5029335;28;20034;-69
2021/07/18 10:28:10;;;;;;;31.00;16.95;;;20.80;80.40;;;;;;5029021;28;20352;-69
2021/07/18 10:30:36;;;;;;;33.00;15.10;;;20.80;80.40;;;;;;5046601;28;20040;-69
2021/07/18 10:33:01;;;;;;;34.70;17.63;;;20.80;80.20;;;;;;5047374;28;20084;-69
2021/07/18 10:35:27;;;;;;;20.52;12.48;;;20.90;80.20;;;;;;5029104;28;20244;-70
2021/07/18 10:37:53;;;;;;;23.52;12.32;;;21.10;80.00;;;;;;5028813;28;20049;-71
2021/07/18 10:40:25;;;;;;;19.23;12.27;;;21.10;80.40;;;;;;5029527;28;20037;-71
2021/07/18 10:42:51;;;;;;;19.80;11.82;;;21.00;80.50;;;;;;5013610;28;20071;-70
2021/07/18 10:45:25;;;;;;;18.27;12.80;;;20.90;80.70;;;;;;5030010;28;20033;-71
2021/07/18 10:48:00;;;;;;;20.70;12.60;;;20.90;80.40;;;;;;5013374;28;20241;-70
2021/07/18 10:50:44;;;;;;;17.67;12.05;;;21.00;80.30;;;;;;5045795;28;20037;-71
2021/07/18 10:53:21;;;;;;;21.88;12.25;;;21.10;80.50;;;;;;5045662;28;20037;-71
2021/07/18 10:55:48;;;;;;;21.65;12.43;;;20.90;80.60;;;;;;5028644;28;20254;-73
2021/07/18 10:58:39;;;;;;;20.63;11.65;;;21.00;80.70;;;;;;5028651;28;20034;-71
2021/07/18 11:01:05;;;;;;;21.52;12.27;;;21.10;80.00;;;;;;5028258;28;20033;-71
2021/07/18 11:03:34;;;;;;;20.27;12.40;;;21.10;79.80;;;;;;5046371;28;20327;-70
2021/07/18 11:06:20;;;;;;;16.27;11.85;;;20.90;80.40;;;;;;5046552;28;20212;-69
2021/07/18 11:09:18;;;;;;;17.73;10.95;;;21.00;80.20;;;;;;5046006;28;20033;-69
2021/07/18 11:11:43;;;;;;;19.70;12.85;;;21.10;80.00;;;;;;5046459;28;20349;-69
2021/07/18 11:14:35;;;;;;;19.55;12.45;;;21.10;79.90;;;;;;5046305;28;20033;-69
2021/07/18 11:17:05;;;;;;;20.80;12.85;;;21.10;79.80;;;;;;5028506;28;20036;-70
2021/07/18 11:19:39;;;;;;;22.67;13.45;;;21.10;79.10;;;;;;5045897;28;20332;-70
2021/07/18 11:22:12;;;;;;;22.30;13.60;;;21.10;79.20;;;;;;5045692;28;20367;-70
2021/07/18 11:24:53;;;;;;;19.65;12.48;;;21.10;80.00;;;;;;5028414;28;20092;-70
2021/07/18 11:27:33;;;;;;;23.02;13.82;;;21.20;79.80;;;;;;5046407;28;20025;-70
2021/07/18 11:30:03;;;;;;;26.30;14.85;;;21.20;79.60;;;;;;5046288;28;20033;-70
2021/07/18 11:32:30;;;;;;;20.23;13.73;;;21.20;80.30;;;;;;5028560;28;20103;-71
2021/07/18 11:34:56;;;;;;;23.27;13.32;;;21.30;79.80;;;;;;5027677;28;20042;-70
2021/07/18 11:37:23;;;;;;;22.42;14.13;;;21.30;79.80;;;;;;5045227;28;20269;-71
2021/07/18 11:39:48;;;;;;;24.08;14.75;;;21.40;79.80;;;;;;5027947;28;20037;-70
2021/07/18 11:42:15;;;;;;;23.83;14.68;;;21.40;79.80;;;;;;5044922;28;20359;-70
2021/07/18 11:44:42;;;;;;;20.85;13.60;;;21.40;80.00;;;;;;5045862;28;20033;-70
2021/07/18 11:47:12;;;;;;;21.02;13.88;;;21.40;80.20;;;;;;5045212;28;20053;-70
2021/07/18 11:49:39;;;;;;;28.05;14.23;;;21.50;79.80;;;;;;5044166;28;20288;-70
2021/07/18 11:52:05;;;;;;;22.63;14.48;;;21.50;79.60;;;;;;5028039;28;20072;-69
2021/07/18 11:54:31;;;;;;;24.23;15.05;;;21.50;79.70;;;;;;5027828;28;20022;-70
2021/07/18 11:56:57;;;;;;;25.10;14.65;;;21.50;79.90;;;;;;5028357;28;20033;-70
2021/07/18 11:59:23;;;;;;;24.55;14.05;;;21.50;80.20;;;;;;5027944;28;20056;-70
2021/07/18 12:01:51;;;;;;;24.45;15.48;;;21.70;79.50;;;;;;5044947;28;20363;-70
2021/07/18 12:04:24;;;;;;;23.38;14.63;;;21.80;79.40;;;;;;5044987;28;20045;-70
2021/07/18 12:07:06;;;;;;;23.70;15.73;;;21.90;78.70;;;;;;5045195;28;20033;-71
2021/07/18 12:09:37;;;;;;;30.40;14.65;;;22.20;79.60;;;;;;5044877;28;20029;-70
2021/07/18 12:12:04;;;;;;;28.38;16.05;;;22.30;79.20;;;;;;5045306;28;20026;-70
2021/07/18 12:14:34;;;;;;;24.98;14.18;;;22.40;79.80;;;;;;5027951;28;20096;-71
2021/07/18 12:17:00;;;;;;;23.77;14.02;;;22.50;78.80;;;;;;5043901;28;20328;-70
2021/07/18 12:19:27;;;;;;;25.58;13.93;;;22.30;78.50;;;;;;5027567;28;20030;-71
2021/07/18 12:21:54;;;;;;;23.55;14.13;;;22.30;78.40;;;;;;5010977;28;20079;-70
2021/07/18 12:24:26;;;;;;;24.98;14.18;;;22.20;78.70;;;;;;5027003;28;20029;-71
2021/07/18 12:26:58;;;;;;;22.60;14.20;;;22.20;78.70;;;;;;5043811;28;20022;-71
2021/07/18 12:29:28;;;;;;;25.38;15.07;;;22.20;78.60;;;;;;5044824;28;20037;-71
2021/07/18 12:31:54;;;;;;;24.30;14.43;;;22.10;79.40;;;;;;5028057;28;20096;-71
2021/07/18 12:34:25;;;;;;;23.77;14.82;;;22.30;79.10;;;;;;5044583;28;20030;-72